KHYW

Conway-Horry County Airport

Conway, South Carolina, USA
METAR KHYW 170155Z AUTO 00000KT 7SM CLR 00/00 A3030 RMK AO2
Observed Flight Rules
Dec-17 @ 01:55 UTC (24 minutes ago) Visual Flight Rules
Wind Visibility Clouds
Calm 7 miles
  • Clear skies
Temperatures Readings
Current 0°C / 32°F
Dewpoint 0°C / 32°F
Humidity 100%
Altimeter 30.3" Hg
Pressure 1026 hPa
Elevation 11
METAR KHYW 170155Z AUTO 00000KT 7SM CLR 00/00 A3030 RMK AO2
Observed Flight Rules
Dec-17 @ 01:55 UTC
(24 minutes ago)
VFR
Wind Visibility
Calm 7 miles
Clouds
  • Clear skies
Temperature Dewpoint
0°C / 32°F 0°C / 32°F
Humidity Altimeter Pressure
100% 30.3" Hg 1026 hPa